Terminal Aerodrome Forecast
Issued by NWS

Home | Current Version | Previous Version | Text Only | Print | Product List | Glossary On
Versions: 1 2 3 4 5 6 7 8 9 10 11 12 13 14 15 16 17 18 19 20 21
137
FTUS43 KDTX 260520
TAFMBS
TAF
KMBS 260520Z 2606/2706 34008KT P6SM OVC012
      TEMPO 2606/2608 OVC008
     FM261000 32006KT P6SM OVC016
     FM261500 30006KT P6SM OVC026
     FM262000 24006KT P6SM OVC035
     FM270200 VRB03KT P6SM SCT040 OVC100=

USA.gov is the U.S. government's official web portal to all federal, state and local government web resources and services.